sensor_id;sensor_type;location;lat;lon;timestamp;P1;durP1;ratioP1;P2;durP2;ratioP2
37459;SDS011;23318;50.966;5.284;2024-01-06T00:01:29;12.73;;;4.53;;
37459;SDS011;23318;50.966;5.284;2024-01-06T00:03:55;13.52;;;4.75;;
37459;SDS011;23318;50.966;5.284;2024-01-06T00:06:21;15.60;;;4.90;;
37459;SDS011;23318;50.966;5.284;2024-01-06T00:08:47;12.20;;;5.70;;
37459;SDS011;23318;50.966;5.284;2024-01-06T00:11:19;10.93;;;5.72;;
37459;SDS011;23318;50.966;5.284;2024-01-06T00:13:45;11.20;;;5.78;;
37459;SDS011;23318;50.966;5.284;2024-01-06T00:16:11;13.68;;;5.53;;
37459;SDS011;23318;50.966;5.284;2024-01-06T00:18:37;17.15;;;6.30;;
37459;SDS011;23318;50.966;5.284;2024-01-06T00:21:02;14.05;;;5.93;;
37459;SDS011;23318;50.966;5.284;2024-01-06T00:23:28;13.73;;;5.18;;
37459;SDS011;23318;50.966;5.284;2024-01-06T00:25:54;18.45;;;7.07;;
37459;SDS011;23318;50.966;5.284;2024-01-06T00:28:19;16.52;;;4.78;;
37459;SDS011;23318;50.966;5.284;2024-01-06T00:30:45;13.00;;;5.05;;
37459;SDS011;23318;50.966;5.284;2024-01-06T00:33:11;13.68;;;5.40;;
37459;SDS011;23318;50.966;5.284;2024-01-06T00:35:37;11.68;;;4.75;;
37459;SDS011;23318;50.966;5.284;2024-01-06T00:38:03;20.90;;;5.78;;
37459;SDS011;23318;50.966;5.284;2024-01-06T00:40:28;11.32;;;5.03;;
37459;SDS011;23318;50.966;5.284;2024-01-06T00:42:54;15.93;;;5.97;;
37459;SDS011;23318;50.966;5.284;2024-01-06T00:45:20;12.52;;;5.57;;
37459;SDS011;23318;50.966;5.284;2024-01-06T00:47:46;17.08;;;7.50;;
37459;SDS011;23318;50.966;5.284;2024-01-06T00:50:11;15.15;;;6.72;;
37459;SDS011;23318;50.966;5.284;2024-01-06T00:52:37;14.68;;;6.32;;
37459;SDS011;23318;50.966;5.284;2024-01-06T00:55:03;15.93;;;6.32;;
37459;SDS011;23318;50.966;5.284;2024-01-06T00:57:29;15.10;;;6.80;;
37459;SDS011;23318;50.966;5.284;2024-01-06T00:59:55;16.60;;;6.25;;
37459;SDS011;23318;50.966;5.284;2024-01-06T01:02:20;20.38;;;6.85;;
37459;SDS011;23318;50.966;5.284;2024-01-06T01:04:46;16.17;;;6.00;;
37459;SDS011;23318;50.966;5.284;2024-01-06T01:07:12;16.00;;;6.70;;
37459;SDS011;23318;50.966;5.284;2024-01-06T01:09:38;15.85;;;6.38;;
37459;SDS011;23318;50.966;5.284;2024-01-06T01:12:03;15.90;;;6.55;;
37459;SDS011;23318;50.966;5.284;2024-01-06T01:14:29;12.95;;;5.43;;
37459;SDS011;23318;50.966;5.284;2024-01-06T01:16:55;9.88;;;6.00;;
37459;SDS011;23318;50.966;5.284;2024-01-06T01:19:21;19.63;;;6.13;;
37459;SDS011;23318;50.966;5.284;2024-01-06T01:21:47;13.25;;;6.25;;
37459;SDS011;23318;50.966;5.284;2024-01-06T01:24:12;13.85;;;5.72;;
37459;SDS011;23318;50.966;5.284;2024-01-06T01:26:38;10.68;;;5.93;;
37459;SDS011;23318;50.966;5.284;2024-01-06T01:29:03;16.40;;;6.20;;
37459;SDS011;23318;50.966;5.284;2024-01-06T01:31:29;13.73;;;5.25;;
37459;SDS011;23318;50.966;5.284;2024-01-06T01:33:55;14.05;;;5.85;;
37459;SDS011;23318;50.966;5.284;2024-01-06T01:36:20;13.40;;;5.57;;
37459;SDS011;23318;50.966;5.284;2024-01-06T01:38:46;14.32;;;5.00;;
37459;SDS011;23318;50.966;5.284;2024-01-06T01:41:12;7.50;;;4.85;;
37459;SDS011;23318;50.966;5.284;2024-01-06T01:43:37;19.23;;;5.13;;
37459;SDS011;23318;50.966;5.284;2024-01-06T01:46:03;11.35;;;5.20;;
37459;SDS011;23318;50.966;5.284;2024-01-06T01:48:29;10.65;;;4.82;;
37459;SDS011;23318;50.966;5.284;2024-01-06T01:50:59;10.07;;;4.32;;
37459;SDS011;23318;50.966;5.284;2024-01-06T01:53:25;11.10;;;4.45;;
37459;SDS011;23318;50.966;5.284;2024-01-06T01:55:51;9.63;;;4.32;;
37459;SDS011;23318;50.966;5.284;2024-01-06T01:58:18;7.18;;;4.22;;
37459;SDS011;23318;50.966;5.284;2024-01-06T02:00:44;12.15;;;4.72;;
37459;SDS011;23318;50.966;5.284;2024-01-06T02:03:09;9.43;;;3.90;;
37459;SDS011;23318;50.966;5.284;2024-01-06T02:05:37;7.00;;;3.65;;
37459;SDS011;23318;50.966;5.284;2024-01-06T02:08:03;7.65;;;4.88;;
37459;SDS011;23318;50.966;5.284;2024-01-06T02:10:30;9.30;;;4.25;;
37459;SDS011;23318;50.966;5.284;2024-01-06T02:12:56;10.60;;;4.38;;
37459;SDS011;23318;50.966;5.284;2024-01-06T02:15:21;8.38;;;4.50;;
37459;SDS011;23318;50.966;5.284;2024-01-06T02:17:47;10.65;;;4.53;;
37459;SDS011;23318;50.966;5.284;2024-01-06T02:20:13;17.35;;;4.70;;
37459;SDS011;23318;50.966;5.284;2024-01-06T02:22:41;12.05;;;4.72;;
37459;SDS011;23318;50.966;5.284;2024-01-06T02:25:07;6.50;;;4.00;;
37459;SDS011;23318;50.966;5.284;2024-01-06T02:27:38;8.95;;;4.10;;
37459;SDS011;23318;50.966;5.284;2024-01-06T02:30:04;8.50;;;3.95;;
37459;SDS011;23318;50.966;5.284;2024-01-06T02:32:31;9.48;;;4.05;;
37459;SDS011;23318;50.966;5.284;2024-01-06T02:34:56;7.00;;;3.83;;
37459;SDS011;23318;50.966;5.284;2024-01-06T02:37:22;8.95;;;4.72;;
37459;SDS011;23318;50.966;5.284;2024-01-06T02:39:48;8.82;;;4.55;;
37459;SDS011;23318;50.966;5.284;2024-01-06T02:42:13;12.00;;;5.15;;
37459;SDS011;23318;50.966;5.284;2024-01-06T02:44:39;10.93;;;5.40;;
37459;SDS011;23318;50.966;5.284;2024-01-06T02:47:05;15.68;;;6.88;;
37459;SDS011;23318;50.966;5.284;2024-01-06T02:49:30;14.02;;;7.47;;
37459;SDS011;23318;50.966;5.284;2024-01-06T02:51:56;14.80;;;6.55;;
37459;SDS011;23318;50.966;5.284;2024-01-06T02:54:22;14.77;;;6.03;;
37459;SDS011;23318;50.966;5.284;2024-01-06T02:56:47;13.77;;;6.10;;
37459;SDS011;23318;50.966;5.284;2024-01-06T02:59:13;16.00;;;6.75;;
37459;SDS011;23318;50.966;5.284;2024-01-06T03:01:39;16.77;;;7.30;;
37459;SDS011;23318;50.966;5.284;2024-01-06T03:04:04;19.48;;;8.10;;
37459;SDS011;23318;50.966;5.284;2024-01-06T03:06:30;17.13;;;8.13;;
37459;SDS011;23318;50.966;5.284;2024-01-06T03:08:55;20.33;;;8.90;;
37459;SDS011;23318;50.966;5.284;2024-01-06T03:11:22;22.40;;;9.70;;
37459;SDS011;23318;50.966;5.284;2024-01-06T03:13:47;21.65;;;9.93;;
37459;SDS011;23318;50.966;5.284;2024-01-06T03:16:13;22.75;;;8.68;;
37459;SDS011;23318;50.966;5.284;2024-01-06T03:18:39;20.55;;;9.45;;
37459;SDS011;23318;50.966;5.284;2024-01-06T03:21:04;22.23;;;9.05;;
37459;SDS011;23318;50.966;5.284;2024-01-06T03:23:30;21.63;;;9.38;;
37459;SDS011;23318;50.966;5.284;2024-01-06T03:25:55;21.83;;;9.10;;
37459;SDS011;23318;50.966;5.284;2024-01-06T03:28:21;26.73;;;10.30;;
37459;SDS011;23318;50.966;5.284;2024-01-06T03:30:47;25.83;;;9.57;;
37459;SDS011;23318;50.966;5.284;2024-01-06T03:33:13;25.92;;;10.10;;
37459;SDS011;23318;50.966;5.284;2024-01-06T03:35:38;27.30;;;11.40;;
37459;SDS011;23318;50.966;5.284;2024-01-06T03:38:04;25.73;;;10.85;;
37459;SDS011;23318;50.966;5.284;2024-01-06T03:40:29;25.75;;;11.27;;
37459;SDS011;23318;50.966;5.284;2024-01-06T03:42:55;25.83;;;11.55;;
37459;SDS011;23318;50.966;5.284;2024-01-06T03:45:21;28.95;;;11.70;;
37459;SDS011;23318;50.966;5.284;2024-01-06T03:47:46;24.10;;;11.40;;
37459;SDS011;23318;50.966;5.284;2024-01-06T03:50:12;27.20;;;12.00;;
37459;SDS011;23318;50.966;5.284;2024-01-06T03:52:38;26.08;;;11.77;;
37459;SDS011;23318;50.966;5.284;2024-01-06T03:55:04;31.52;;;12.82;;
37459;SDS011;23318;50.966;5.284;2024-01-06T03:57:30;26.55;;;10.82;;
37459;SDS011;23318;50.966;5.284;2024-01-06T03:59:56;26.35;;;11.63;;
37459;SDS011;23318;50.966;5.284;2024-01-06T04:02:22;26.63;;;11.38;;
37459;SDS011;23318;50.966;5.284;2024-01-06T04:04:48;27.67;;;12.10;;
37459;SDS011;23318;50.966;5.284;2024-01-06T04:07:14;26.25;;;11.52;;
37459;SDS011;23318;50.966;5.284;2024-01-06T04:09:43;34.33;;;13.15;;
37459;SDS011;23318;50.966;5.284;2024-01-06T04:12:09;28.40;;;12.18;;
37459;SDS011;23318;50.966;5.284;2024-01-06T04:14:34;32.25;;;12.77;;
37459;SDS011;23318;50.966;5.284;2024-01-06T04:17:00;28.05;;;10.57;;
37459;SDS011;23318;50.966;5.284;2024-01-06T04:19:26;30.00;;;12.05;;
37459;SDS011;23318;50.966;5.284;2024-01-06T04:21:51;26.45;;;11.45;;
37459;SDS011;23318;50.966;5.284;2024-01-06T04:24:17;29.77;;;12.15;;
37459;SDS011;23318;50.966;5.284;2024-01-06T04:26:42;26.27;;;12.00;;
37459;SDS011;23318;50.966;5.284;2024-01-06T04:29:10;26.92;;;12.30;;
37459;SDS011;23318;50.966;5.284;2024-01-06T04:31:37;26.60;;;12.07;;
37459;SDS011;23318;50.966;5.284;2024-01-06T04:34:02;26.25;;;12.00;;
37459;SDS011;23318;50.966;5.284;2024-01-06T04:36:28;25.50;;;11.23;;
37459;SDS011;23318;50.966;5.284;2024-01-06T04:38:54;24.90;;;11.73;;
37459;SDS011;23318;50.966;5.284;2024-01-06T04:41:19;23.77;;;10.95;;
37459;SDS011;23318;50.966;5.284;2024-01-06T04:43:45;23.05;;;10.93;;
37459;SDS011;23318;50.966;5.284;2024-01-06T04:46:11;23.98;;;10.98;;
37459;SDS011;23318;50.966;5.284;2024-01-06T04:48:39;23.50;;;11.00;;
37459;SDS011;23318;50.966;5.284;2024-01-06T04:51:08;19.30;;;9.43;;
37459;SDS011;23318;50.966;5.284;2024-01-06T04:53:38;20.23;;;10.10;;
37459;SDS011;23318;50.966;5.284;2024-01-06T04:56:04;17.05;;;8.45;;
37459;SDS011;23318;50.966;5.284;2024-01-06T04:58:29;17.98;;;8.57;;
37459;SDS011;23318;50.966;5.284;2024-01-06T05:00:55;15.20;;;8.15;;
37459;SDS011;23318;50.966;5.284;2024-01-06T05:03:21;18.27;;;8.85;;
37459;SDS011;23318;50.966;5.284;2024-01-06T05:05:47;16.27;;;8.65;;
37459;SDS011;23318;50.966;5.284;2024-01-06T05:08:12;16.85;;;8.57;;
37459;SDS011;23318;50.966;5.284;2024-01-06T05:10:38;18.05;;;7.88;;
37459;SDS011;23318;50.966;5.284;2024-01-06T05:13:04;16.63;;;8.45;;
37459;SDS011;23318;50.966;5.284;2024-01-06T05:15:29;18.10;;;9.55;;
37459;SDS011;23318;50.966;5.284;2024-01-06T05:17:55;17.65;;;7.95;;
37459;SDS011;23318;50.966;5.284;2024-01-06T05:20:21;13.75;;;7.90;;
37459;SDS011;23318;50.966;5.284;2024-01-06T05:22:46;15.23;;;7.57;;
37459;SDS011;23318;50.966;5.284;2024-01-06T05:25:12;13.50;;;7.85;;
37459;SDS011;23318;50.966;5.284;2024-01-06T05:27:37;13.65;;;7.55;;
37459;SDS011;23318;50.966;5.284;2024-01-06T05:30:03;19.67;;;8.70;;
37459;SDS011;23318;50.966;5.284;2024-01-06T05:32:29;18.30;;;9.43;;
37459;SDS011;23318;50.966;5.284;2024-01-06T05:34:55;17.88;;;9.38;;
37459;SDS011;23318;50.966;5.284;2024-01-06T05:37:20;18.38;;;9.10;;
37459;SDS011;23318;50.966;5.284;2024-01-06T05:39:46;18.13;;;9.85;;
37459;SDS011;23318;50.966;5.284;2024-01-06T05:42:12;21.25;;;9.18;;
37459;SDS011;23318;50.966;5.284;2024-01-06T05:44:39;15.38;;;8.80;;
37459;SDS011;23318;50.966;5.284;2024-01-06T05:47:06;17.42;;;9.52;;
37459;SDS011;23318;50.966;5.284;2024-01-06T05:49:33;17.60;;;9.15;;
37459;SDS011;23318;50.966;5.284;2024-01-06T05:51:58;17.60;;;9.63;;
37459;SDS011;23318;50.966;5.284;2024-01-06T05:54:24;15.57;;;8.23;;
37459;SDS011;23318;50.966;5.284;2024-01-06T05:56:50;19.50;;;8.73;;
37459;SDS011;23318;50.966;5.284;2024-01-06T05:59:16;13.98;;;8.20;;
37459;SDS011;23318;50.966;5.284;2024-01-06T06:01:42;15.40;;;8.48;;
37459;SDS011;23318;50.966;5.284;2024-01-06T06:04:08;15.13;;;7.35;;
37459;SDS011;23318;50.966;5.284;2024-01-06T06:06:35;16.13;;;8.18;;
37459;SDS011;23318;50.966;5.284;2024-01-06T06:09:00;14.85;;;8.27;;
37459;SDS011;23318;50.966;5.284;2024-01-06T06:11:26;15.13;;;8.13;;
37459;SDS011;23318;50.966;5.284;2024-01-06T06:13:52;13.02;;;7.25;;
37459;SDS011;23318;50.966;5.284;2024-01-06T06:16:17;13.45;;;7.68;;
37459;SDS011;23318;50.966;5.284;2024-01-06T06:18:43;13.80;;;6.78;;
37459;SDS011;23318;50.966;5.284;2024-01-06T06:21:09;16.75;;;8.70;;
37459;SDS011;23318;50.966;5.284;2024-01-06T06:23:35;21.55;;;8.80;;
37459;SDS011;23318;50.966;5.284;2024-01-06T06:26:06;12.00;;;6.57;;
37459;SDS011;23318;50.966;5.284;2024-01-06T06:28:33;11.18;;;6.70;;
37459;SDS011;23318;50.966;5.284;2024-01-06T06:30:59;13.57;;;6.40;;
37459;SDS011;23318;50.966;5.284;2024-01-06T06:33:25;13.73;;;6.65;;
37459;SDS011;23318;50.966;5.284;2024-01-06T06:35:51;12.02;;;6.00;;
37459;SDS011;23318;50.966;5.284;2024-01-06T06:38:16;14.15;;;5.95;;
37459;SDS011;23318;50.966;5.284;2024-01-06T06:40:42;16.10;;;7.30;;
37459;SDS011;23318;50.966;5.284;2024-01-06T06:43:08;11.80;;;6.68;;
37459;SDS011;23318;50.966;5.284;2024-01-06T06:45:34;12.77;;;6.35;;
37459;SDS011;23318;50.966;5.284;2024-01-06T06:48:00;14.15;;;6.50;;
37459;SDS011;23318;50.966;5.284;2024-01-06T06:50:25;17.50;;;7.40;;
37459;SDS011;23318;50.966;5.284;2024-01-06T06:52:51;15.77;;;7.55;;
37459;SDS011;23318;50.966;5.284;2024-01-06T06:55:17;15.73;;;7.63;;
37459;SDS011;23318;50.966;5.284;2024-01-06T06:57:43;17.35;;;7.45;;
37459;SDS011;23318;50.966;5.284;2024-01-06T07:00:09;16.70;;;7.72;;
37459;SDS011;23318;50.966;5.284;2024-01-06T07:02:35;17.67;;;8.57;;
37459;SDS011;23318;50.966;5.284;2024-01-06T07:05:01;18.42;;;8.23;;
37459;SDS011;23318;50.966;5.284;2024-01-06T07:07:26;18.83;;;8.88;;
37459;SDS011;23318;50.966;5.284;2024-01-06T07:09:52;14.15;;;7.18;;
37459;SDS011;23318;50.966;5.284;2024-01-06T07:12:18;15.90;;;8.07;;
37459;SDS011;23318;50.966;5.284;2024-01-06T07:14:43;17.75;;;7.90;;
37459;SDS011;23318;50.966;5.284;2024-01-06T07:17:09;16.08;;;7.78;;
37459;SDS011;23318;50.966;5.284;2024-01-06T07:19:35;15.82;;;7.75;;
37459;SDS011;23318;50.966;5.284;2024-01-06T07:22:01;19.90;;;7.88;;
37459;SDS011;23318;50.966;5.284;2024-01-06T07:24:26;18.48;;;8.88;;
37459;SDS011;23318;50.966;5.284;2024-01-06T07:26:52;16.40;;;7.45;;
37459;SDS011;23318;50.966;5.284;2024-01-06T07:29:18;17.65;;;7.65;;
37459;SDS011;23318;50.966;5.284;2024-01-06T07:31:44;20.80;;;8.55;;
37459;SDS011;23318;50.966;5.284;2024-01-06T07:34:09;18.40;;;8.30;;
37459;SDS011;23318;50.966;5.284;2024-01-06T07:36:35;19.13;;;8.55;;
37459;SDS011;23318;50.966;5.284;2024-01-06T07:39:01;19.70;;;9.15;;
37459;SDS011;23318;50.966;5.284;2024-01-06T07:41:28;17.85;;;8.13;;
37459;SDS011;23318;50.966;5.284;2024-01-06T07:43:55;17.60;;;8.02;;
37459;SDS011;23318;50.966;5.284;2024-01-06T07:46:21;17.40;;;7.95;;
37459;SDS011;23318;50.966;5.284;2024-01-06T07:48:47;20.05;;;9.10;;
37459;SDS011;23318;50.966;5.284;2024-01-06T07:51:12;14.82;;;7.93;;
37459;SDS011;23318;50.966;5.284;2024-01-06T07:53:38;17.10;;;8.40;;
37459;SDS011;23318;50.966;5.284;2024-01-06T07:56:04;18.80;;;7.93;;
37459;SDS011;23318;50.966;5.284;2024-01-06T07:58:30;16.33;;;8.52;;
37459;SDS011;23318;50.966;5.284;2024-01-06T08:00:57;17.15;;;9.10;;
37459;SDS011;23318;50.966;5.284;2024-01-06T08:03:23;16.42;;;8.45;;
37459;SDS011;23318;50.966;5.284;2024-01-06T08:05:50;16.83;;;8.10;;
37459;SDS011;23318;50.966;5.284;2024-01-06T08:08:15;21.33;;;9.43;;
37459;SDS011;23318;50.966;5.284;2024-01-06T08:10:42;21.15;;;8.63;;
37459;SDS011;23318;50.966;5.284;2024-01-06T08:13:08;14.95;;;7.65;;
37459;SDS011;23318;50.966;5.284;2024-01-06T08:15:33;19.95;;;7.80;;
37459;SDS011;23318;50.966;5.284;2024-01-06T08:17:59;13.07;;;6.80;;
37459;SDS011;23318;50.966;5.284;2024-01-06T08:20:25;15.05;;;7.45;;
37459;SDS011;23318;50.966;5.284;2024-01-06T08:22:50;12.57;;;7.20;;
37459;SDS011;23318;50.966;5.284;2024-01-06T08:25:16;14.57;;;7.05;;
37459;SDS011;23318;50.966;5.284;2024-01-06T08:27:42;14.80;;;7.05;;
37459;SDS011;23318;50.966;5.284;2024-01-06T08:30:08;12.52;;;6.47;;
37459;SDS011;23318;50.966;5.284;2024-01-06T08:32:34;15.75;;;7.53;;
37459;SDS011;23318;50.966;5.284;2024-01-06T08:35:00;14.93;;;7.38;;
37459;SDS011;23318;50.966;5.284;2024-01-06T08:37:25;12.10;;;6.90;;
37459;SDS011;23318;50.966;5.284;2024-01-06T08:39:51;14.82;;;7.10;;
37459;SDS011;23318;50.966;5.284;2024-01-06T08:42:17;13.07;;;7.07;;
37459;SDS011;23318;50.966;5.284;2024-01-06T08:44:42;13.70;;;6.85;;
37459;SDS011;23318;50.966;5.284;2024-01-06T08:47:08;13.90;;;7.60;;
37459;SDS011;23318;50.966;5.284;2024-01-06T08:49:34;13.52;;;7.35;;
37459;SDS011;23318;50.966;5.284;2024-01-06T08:52:00;12.75;;;6.43;;
37459;SDS011;23318;50.966;5.284;2024-01-06T08:54:26;13.80;;;7.10;;
37459;SDS011;23318;50.966;5.284;2024-01-06T08:56:51;10.07;;;5.57;;
37459;SDS011;23318;50.966;5.284;2024-01-06T08:59:17;21.25;;;7.32;;
37459;SDS011;23318;50.966;5.284;2024-01-06T09:01:42;13.05;;;6.90;;
37459;SDS011;23318;50.966;5.284;2024-01-06T09:04:08;16.52;;;7.28;;
37459;SDS011;23318;50.966;5.284;2024-01-06T09:06:36;12.90;;;6.30;;
37459;SDS011;23318;50.966;5.284;2024-01-06T09:09:02;15.00;;;6.55;;
37459;SDS011;23318;50.966;5.284;2024-01-06T09:11:27;10.52;;;6.43;;
37459;SDS011;23318;50.966;5.284;2024-01-06T09:13:53;15.00;;;7.03;;
37459;SDS011;23318;50.966;5.284;2024-01-06T09:16:19;14.95;;;6.97;;
37459;SDS011;23318;50.966;5.284;2024-01-06T09:18:45;17.08;;;7.22;;
37459;SDS011;23318;50.966;5.284;2024-01-06T09:21:10;15.35;;;7.07;;
37459;SDS011;23318;50.966;5.284;2024-01-06T09:23:36;14.27;;;7.45;;
37459;SDS011;23318;50.966;5.284;2024-01-06T09:26:02;14.02;;;7.18;;
37459;SDS011;23318;50.966;5.284;2024-01-06T09:28:28;16.13;;;7.75;;
37459;SDS011;23318;50.966;5.284;2024-01-06T09:30:53;14.73;;;6.90;;
37459;SDS011;23318;50.966;5.284;2024-01-06T09:33:21;14.05;;;7.10;;
37459;SDS011;23318;50.966;5.284;2024-01-06T09:35:47;12.13;;;6.70;;
37459;SDS011;23318;50.966;5.284;2024-01-06T09:38:13;13.98;;;6.78;;
37459;SDS011;23318;50.966;5.284;2024-01-06T09:40:43;15.73;;;7.43;;
37459;SDS011;23318;50.966;5.284;2024-01-06T09:43:10;21.25;;;8.52;;
37459;SDS011;23318;50.966;5.284;2024-01-06T09:45:37;20.75;;;7.88;;
37459;SDS011;23318;50.966;5.284;2024-01-06T09:48:06;14.38;;;7.93;;
37459;SDS011;23318;50.966;5.284;2024-01-06T09:50:37;14.38;;;8.20;;
37459;SDS011;23318;50.966;5.284;2024-01-06T09:53:08;16.15;;;8.80;;
37459;SDS011;23318;50.966;5.284;2024-01-06T09:55:36;16.40;;;7.63;;
37459;SDS011;23318;50.966;5.284;2024-01-06T09:58:02;15.93;;;7.97;;
37459;SDS011;23318;50.966;5.284;2024-01-06T10:00:28;16.33;;;7.45;;
37459;SDS011;23318;50.966;5.284;2024-01-06T10:02:54;15.38;;;7.45;;
37459;SDS011;23318;50.966;5.284;2024-01-06T10:05:20;13.98;;;6.88;;
37459;SDS011;23318;50.966;5.284;2024-01-06T10:07:46;15.07;;;6.47;;
37459;SDS011;23318;50.966;5.284;2024-01-06T10:10:13;13.68;;;7.13;;
37459;SDS011;23318;50.966;5.284;2024-01-06T10:12:40;15.48;;;7.22;;
37459;SDS011;23318;50.966;5.284;2024-01-06T10:15:07;15.82;;;7.22;;
37459;SDS011;23318;50.966;5.284;2024-01-06T10:17:43;20.23;;;6.75;;
37459;SDS011;23318;50.966;5.284;2024-01-06T10:20:09;13.23;;;6.50;;
37459;SDS011;23318;50.966;5.284;2024-01-06T10:22:37;12.52;;;6.78;;
37459;SDS011;23318;50.966;5.284;2024-01-06T10:25:06;11.55;;;6.70;;
37459;SDS011;23318;50.966;5.284;2024-01-06T10:27:37;11.90;;;6.53;;
37459;SDS011;23318;50.966;5.284;2024-01-06T10:30:04;11.70;;;5.95;;
37459;SDS011;23318;50.966;5.284;2024-01-06T10:32:34;14.10;;;6.53;;
37459;SDS011;23318;50.966;5.284;2024-01-06T10:35:04;11.80;;;6.18;;
37459;SDS011;23318;50.966;5.284;2024-01-06T10:37:31;12.60;;;5.53;;
37459;SDS011;23318;50.966;5.284;2024-01-06T10:40:07;9.65;;;4.90;;
37459;SDS011;23318;50.966;5.284;2024-01-06T10:42:41;9.77;;;4.85;;
37459;SDS011;23318;50.966;5.284;2024-01-06T10:45:08;9.50;;;5.40;;
37459;SDS011;23318;50.966;5.284;2024-01-06T10:47:39;8.82;;;4.80;;
37459;SDS011;23318;50.966;5.284;2024-01-06T10:50:06;7.18;;;4.32;;
37459;SDS011;23318;50.966;5.284;2024-01-06T10:52:37;9.65;;;4.68;;
37459;SDS011;23318;50.966;5.284;2024-01-06T10:55:04;9.65;;;5.07;;
37459;SDS011;23318;50.966;5.284;2024-01-06T10:57:30;8.55;;;4.70;;
37459;SDS011;23318;50.966;5.284;2024-01-06T11:00:00;9.70;;;5.40;;
37459;SDS011;23318;50.966;5.284;2024-01-06T11:02:26;8.48;;;4.57;;
37459;SDS011;23318;50.966;5.284;2024-01-06T11:04:52;11.25;;;5.45;;
37459;SDS011;23318;50.966;5.284;2024-01-06T11:07:19;14.23;;;5.13;;
37459;SDS011;23318;50.966;5.284;2024-01-06T11:09:48;13.25;;;5.20;;
37459;SDS011;23318;50.966;5.284;2024-01-06T11:14:56;7.70;;;4.70;;
37459;SDS011;23318;50.966;5.284;2024-01-06T11:20:20;8.85;;;3.92;;
37459;SDS011;23318;50.966;5.284;2024-01-06T11:22:47;8.32;;;3.85;;
37459;SDS011;23318;50.966;5.284;2024-01-06T11:25:17;8.23;;;4.05;;
37459;SDS011;23318;50.966;5.284;2024-01-06T11:27:47;8.48;;;4.82;;
37459;SDS011;23318;50.966;5.284;2024-01-06T11:32:46;6.90;;;4.25;;
37459;SDS011;23318;50.966;5.284;2024-01-06T11:35:15;8.27;;;3.47;;
37459;SDS011;23318;50.966;5.284;2024-01-06T11:40:15;9.13;;;4.22;;
37459;SDS011;23318;50.966;5.284;2024-01-06T11:42:45;8.90;;;3.83;;
37459;SDS011;23318;50.966;5.284;2024-01-06T11:45:12;7.43;;;4.15;;
37459;SDS011;23318;50.966;5.284;2024-01-06T11:47:38;7.85;;;4.13;;
37459;SDS011;23318;50.966;5.284;2024-01-06T11:50:04;7.28;;;3.88;;
37459;SDS011;23318;50.966;5.284;2024-01-06T11:52:33;6.43;;;3.33;;
37459;SDS011;23318;50.966;5.284;2024-01-06T11:54:59;6.55;;;3.63;;
37459;SDS011;23318;50.966;5.284;2024-01-06T11:57:26;8.27;;;4.07;;
37459;SDS011;23318;50.966;5.284;2024-01-06T11:59:53;5.88;;;3.47;;
37459;SDS011;23318;50.966;5.284;2024-01-06T12:02:19;5.60;;;3.30;;
37459;SDS011;23318;50.966;5.284;2024-01-06T12:04:49;7.72;;;4.20;;
37459;SDS011;23318;50.966;5.284;2024-01-06T12:07:16;6.15;;;3.13;;
37459;SDS011;23318;50.966;5.284;2024-01-06T12:09:42;6.97;;;3.22;;
37459;SDS011;23318;50.966;5.284;2024-01-06T12:12:07;6.40;;;3.80;;
37459;SDS011;23318;50.966;5.284;2024-01-06T12:14:35;8.45;;;4.15;;
37459;SDS011;23318;50.966;5.284;2024-01-06T12:17:02;6.32;;;3.42;;
37459;SDS011;23318;50.966;5.284;2024-01-06T12:19:29;6.57;;;4.00;;
37459;SDS011;23318;50.966;5.284;2024-01-06T12:21:56;20.50;;;5.30;;
37459;SDS011;23318;50.966;5.284;2024-01-06T12:24:22;14.25;;;6.30;;
37459;SDS011;23318;50.966;5.284;2024-01-06T12:26:48;6.80;;;4.22;;
37459;SDS011;23318;50.966;5.284;2024-01-06T12:29:16;10.57;;;4.93;;
37459;SDS011;23318;50.966;5.284;2024-01-06T12:31:42;7.50;;;4.88;;
37459;SDS011;23318;50.966;5.284;2024-01-06T12:34:09;12.82;;;5.32;;
37459;SDS011;23318;50.966;5.284;2024-01-06T12:36:37;7.70;;;4.45;;
37459;SDS011;23318;50.966;5.284;2024-01-06T12:39:04;6.70;;;4.38;;
37459;SDS011;23318;50.966;5.284;2024-01-06T12:41:30;8.00;;;4.05;;
37459;SDS011;23318;50.966;5.284;2024-01-06T12:43:58;5.43;;;3.88;;
37459;SDS011;23318;50.966;5.284;2024-01-06T12:46:25;5.72;;;3.38;;
37459;SDS011;23318;50.966;5.284;2024-01-06T12:48:54;6.90;;;4.05;;
37459;SDS011;23318;50.966;5.284;2024-01-06T12:51:20;5.57;;;3.40;;
37459;SDS011;23318;50.966;5.284;2024-01-06T12:53:45;7.10;;;3.75;;
37459;SDS011;23318;50.966;5.284;2024-01-06T12:56:11;8.88;;;3.60;;
37459;SDS011;23318;50.966;5.284;2024-01-06T12:58:39;6.63;;;2.85;;
37459;SDS011;23318;50.966;5.284;2024-01-06T13:01:05;4.57;;;2.95;;
37459;SDS011;23318;50.966;5.284;2024-01-06T13:03:32;6.60;;;3.47;;
37459;SDS011;23318;50.966;5.284;2024-01-06T13:05:58;6.65;;;3.78;;
37459;SDS011;23318;50.966;5.284;2024-01-06T13:08:25;6.18;;;3.05;;
37459;SDS011;23318;50.966;5.284;2024-01-06T13:10:50;5.03;;;3.72;;
37459;SDS011;23318;50.966;5.284;2024-01-06T13:13:16;6.88;;;3.42;;
37459;SDS011;23318;50.966;5.284;2024-01-06T13:15:42;4.35;;;2.85;;
37459;SDS011;23318;50.966;5.284;2024-01-06T13:18:08;5.93;;;3.33;;
37459;SDS011;23318;50.966;5.284;2024-01-06T13:20:33;4.35;;;2.80;;
37459;SDS011;23318;50.966;5.284;2024-01-06T13:22:59;5.13;;;3.38;;
37459;SDS011;23318;50.966;5.284;2024-01-06T13:25:25;7.93;;;4.55;;
37459;SDS011;23318;50.966;5.284;2024-01-06T13:27:50;4.70;;;3.00;;
37459;SDS011;23318;50.966;5.284;2024-01-06T13:30:16;5.07;;;2.85;;
37459;SDS011;23318;50.966;5.284;2024-01-06T13:32:42;4.68;;;3.50;;
37459;SDS011;23318;50.966;5.284;2024-01-06T13:35:08;6.00;;;3.08;;
37459;SDS011;23318;50.966;5.284;2024-01-06T13:37:36;6.43;;;3.95;;
37459;SDS011;23318;50.966;5.284;2024-01-06T13:40:02;5.07;;;3.55;;
37459;SDS011;23318;50.966;5.284;2024-01-06T13:42:28;6.50;;;3.50;;
37459;SDS011;23318;50.966;5.284;2024-01-06T13:44:54;8.85;;;3.83;;
37459;SDS011;23318;50.966;5.284;2024-01-06T13:47:19;7.13;;;3.80;;
37459;SDS011;23318;50.966;5.284;2024-01-06T13:49:45;6.70;;;3.40;;
37459;SDS011;23318;50.966;5.284;2024-01-06T13:52:11;6.22;;;3.30;;
37459;SDS011;23318;50.966;5.284;2024-01-06T13:54:37;8.48;;;3.75;;
37459;SDS011;23318;50.966;5.284;2024-01-06T13:57:02;6.03;;;3.50;;
37459;SDS011;23318;50.966;5.284;2024-01-06T13:59:28;7.13;;;4.03;;
37459;SDS011;23318;50.966;5.284;2024-01-06T14:01:54;6.60;;;3.53;;
37459;SDS011;23318;50.966;5.284;2024-01-06T14:04:19;8.85;;;3.85;;
37459;SDS011;23318;50.966;5.284;2024-01-06T14:06:45;7.53;;;4.32;;
37459;SDS011;23318;50.966;5.284;2024-01-06T14:09:13;6.40;;;4.70;;
37459;SDS011;23318;50.966;5.284;2024-01-06T14:11:38;9.38;;;5.50;;
37459;SDS011;23318;50.966;5.284;2024-01-06T14:14:04;11.93;;;5.53;;
37459;SDS011;23318;50.966;5.284;2024-01-06T14:16:30;17.73;;;6.70;;
37459;SDS011;23318;50.966;5.284;2024-01-06T14:18:56;12.00;;;5.60;;
37459;SDS011;23318;50.966;5.284;2024-01-06T14:21:22;10.35;;;6.10;;
37459;SDS011;23318;50.966;5.284;2024-01-06T14:23:48;8.25;;;5.32;;
37459;SDS011;23318;50.966;5.284;2024-01-06T14:26:15;10.23;;;5.32;;
37459;SDS011;23318;50.966;5.284;2024-01-06T14:28:46;8.07;;;4.90;;
37459;SDS011;23318;50.966;5.284;2024-01-06T14:31:12;6.50;;;4.47;;
37459;SDS011;23318;50.966;5.284;2024-01-06T14:33:38;7.90;;;4.18;;
37459;SDS011;23318;50.966;5.284;2024-01-06T14:36:04;7.57;;;3.97;;
37459;SDS011;23318;50.966;5.284;2024-01-06T14:38:30;6.65;;;4.20;;
37459;SDS011;23318;50.966;5.284;2024-01-06T14:40:55;7.78;;;4.03;;